Time;durP1;ratioP1;P1;durP2;ratioP2;P2;SDS_P1;SDS_P2;PMS_P1;PMS_P2;Temp;Humidity;BMP_temperature;BMP_pressure;BME280_temperature;BME280_humidity;BME280_pressure;Samples;Min_cycle;Max_cycle;Signal;HPM_P1;HPM_P2
2022/01/19 00:00:21;;;;;;;6.30;5.33;;;3.70;99.90;;;;;;7383277;19;20309;-77
2022/01/19 00:02:47;;;;;;;6.05;5.45;;;3.70;99.90;;;;;;7381542;19;20352;-76
2022/01/19 00:05:13;;;;;;;5.57;5.07;;;3.90;99.90;;;;;;7381791;19;20371;-76
2022/01/19 00:07:38;;;;;;;5.63;5.03;;;3.70;99.90;;;;;;7382465;19;20853;-76
2022/01/19 00:10:08;;;;;;;6.82;5.57;;;3.80;99.90;;;;;;7382501;19;20321;-76
2022/01/19 00:12:34;;;;;;;7.57;6.00;;;3.80;99.90;;;;;;7381898;19;20847;-77
2022/01/19 00:15:00;;;;;;;6.77;5.37;;;3.80;99.90;;;;;;7380150;19;20376;-77
2022/01/19 00:17:25;;;;;;;6.80;5.67;;;3.80;99.90;;;;;;7381750;19;21003;-76
2022/01/19 00:19:51;;;;;;;6.80;5.63;;;4.00;99.90;;;;;;7366744;19;20309;-77
2022/01/19 00:22:17;;;;;;;8.27;5.70;;;4.20;99.90;;;;;;7380318;19;20309;-76
2022/01/19 00:24:43;;;;;;;7.15;5.70;;;4.00;99.90;;;;;;7382171;19;20301;-77
2022/01/19 00:27:09;;;;;;;9.13;6.30;;;3.90;99.90;;;;;;7380618;19;20317;-77
2022/01/19 00:29:35;;;;;;;8.32;6.10;;;4.00;99.90;;;;;;7381409;19;20344;-77
2022/01/19 00:32:01;;;;;;;7.85;6.10;;;4.00;99.90;;;;;;7380627;19;20649;-75
2022/01/19 00:34:28;;;;;;;5.73;5.13;;;3.90;99.90;;;;;;7383322;19;20308;-77
2022/01/19 00:36:54;;;;;;;6.47;5.72;;;3.90;99.90;;;;;;7382931;19;20348;-77
2022/01/19 00:39:20;;;;;;;6.32;5.72;;;3.90;99.90;;;;;;7381432;19;20313;-77
2022/01/19 00:41:46;;;;;;;5.95;5.25;;;3.90;99.90;;;;;;7381555;19;20307;-76
2022/01/19 00:44:11;;;;;;;10.23;5.83;;;3.90;99.90;;;;;;7379446;19;20337;-77
2022/01/19 00:46:37;;;;;;;6.28;5.65;;;3.90;99.90;;;;;;7383050;19;20694;-76
2022/01/19 00:49:03;;;;;;;6.90;6.20;;;4.00;99.90;;;;;;7380084;19;20932;-76
2022/01/19 00:51:28;;;;;;;7.47;5.30;;;4.00;99.90;;;;;;7380161;19;20300;-77
2022/01/19 00:53:54;;;;;;;6.68;5.50;;;4.00;99.90;;;;;;7381769;19;20351;-76
2022/01/19 00:56:20;;;;;;;10.40;6.20;;;4.00;99.90;;;;;;7378857;19;20371;-76
2022/01/19 00:58:46;;;;;;;8.27;5.10;;;4.00;99.90;;;;;;7379543;19;20304;-77
2022/01/19 01:01:12;;;;;;;6.43;5.47;;;3.90;99.90;;;;;;7378600;19;21019;-76
2022/01/19 01:03:37;;;;;;;6.13;5.45;;;3.90;99.90;;;;;;7378825;19;20322;-77
2022/01/19 01:06:03;;;;;;;6.97;5.80;;;4.00;99.90;;;;;;7379375;19;20325;-77
2022/01/19 01:08:29;;;;;;;7.70;5.70;;;3.90;99.90;;;;;;7380203;19;20419;-77
2022/01/19 01:10:54;;;;;;;6.57;5.43;;;3.90;99.90;;;;;;7378939;19;20329;-76
2022/01/19 01:18:27;;;;;;;5.78;5.22;;;3.90;99.90;;;;;;7379482;19;20328;-77
2022/01/19 01:20:57;;;;;;;5.63;5.13;;;3.90;99.90;;;;;;7379781;19;20335;-77
2022/01/19 01:23:24;;;;;;;6.05;5.30;;;3.90;99.90;;;;;;7377722;19;20331;-77
2022/01/19 01:25:51;;;;;;;5.55;5.05;;;3.90;99.90;;;;;;7379975;19;20309;-78
2022/01/19 01:28:17;;;;;;;7.32;6.00;;;3.90;99.90;;;;;;7379697;19;20312;-77
2022/01/19 01:30:43;;;;;;;7.67;5.20;;;3.80;99.90;;;;;;7378702;19;20352;-76
2022/01/19 01:33:10;;;;;;;4.53;4.13;;;3.80;99.90;;;;;;7377146;19;20307;-76
2022/01/19 01:35:36;;;;;;;6.95;5.50;;;4.00;99.90;;;;;;7379080;19;20305;-76
2022/01/19 01:38:02;;;;;;;6.30;5.40;;;3.80;99.90;;;;;;7382368;19;20384;-78
2022/01/19 01:40:27;;;;;;;6.10;5.00;;;3.80;99.90;;;;;;7385271;19;20732;-77
2022/01/19 01:42:54;;;;;;;6.40;5.10;;;3.80;99.90;;;;;;7386141;19;20326;-76
2022/01/19 01:45:26;;;;;;;6.70;5.23;;;3.70;99.90;;;;;;7384191;19;20293;-76
2022/01/19 01:48:01;;;;;;;6.28;5.55;;;3.70;99.90;;;;;;7386390;19;20345;-77
2022/01/19 01:53:27;;;;;;;5.85;5.15;;;3.80;99.90;;;;;;7385787;19;20308;-76
2022/01/19 01:55:58;;;;;;;7.75;4.82;;;3.80;99.90;;;;;;7284685;19;2007509;-77
2022/01/19 01:58:24;;;;;;;5.80;4.93;;;3.90;99.90;;;;;;7385928;19;20390;-76
2022/01/19 02:01:08;;;;;;;8.47;4.93;;;3.80;99.90;;;;;;7282654;19;2005974;-77
2022/01/19 02:03:38;;;;;;;6.15;4.95;;;3.80;99.90;;;;;;7362617;19;20336;-76
2022/01/19 02:06:27;;;;;;;6.32;5.28;;;3.90;99.90;;;;;;7383920;19;21036;-76
2022/01/19 02:09:13;;;;;;;6.30;5.30;;;3.80;99.90;;;;;;7281736;19;2006089;-77
2022/01/19 02:23:06;;;;;;;5.85;4.50;;;3.90;99.90;;;;;;7282087;19;2006705;-77
2022/01/19 02:25:38;;;;;;;5.13;4.38;;;3.90;99.90;;;;;;7385350;19;20305;-76
2022/01/19 02:41:38;;;;;;;7.70;4.15;;;3.80;99.90;;;;;;7282690;19;2004453;-77
2022/01/19 02:44:04;;;;;;;5.97;4.70;;;3.90;99.90;;;;;;7383575;19;20332;-76
2022/01/19 02:49:09;;;;;;;6.50;4.30;;;3.90;99.90;;;;;;7383028;19;21477;-76
2022/01/19 02:49:20;;;;;;;5.25;4.32;;;3.90;99.90;;;;;;7384574;19;20345;-77
2022/01/19 02:51:47;;;;;;;7.57;4.72;;;3.90;99.90;;;;;;7381978;19;20336;-77
2022/01/19 02:54:18;;;;;;;5.37;4.33;;;4.10;99.90;;;;;;7383496;19;20341;-77
2022/01/19 02:56:48;;;;;;;7.25;4.78;;;3.90;99.90;;;;;;7383338;19;20334;-77
2022/01/19 02:59:19;;;;;;;5.25;4.65;;;4.10;99.90;;;;;;7384214;19;20909;-77
2022/01/19 03:09:43;;;;;;;7.10;5.22;;;4.00;99.90;;;;;;7384141;19;20309;-76
2022/01/19 03:12:09;;;;;;;6.70;4.63;;;4.10;99.90;;;;;;7383147;19;20323;-76
2022/01/19 03:14:35;;;;;;;6.50;5.40;;;3.90;99.90;;;;;;7383981;19;20308;-77
2022/01/19 03:17:00;;;;;;;8.25;4.95;;;3.90;99.90;;;;;;7381618;19;20899;-76
2022/01/19 03:19:28;;;;;;;6.07;5.07;;;3.90;99.90;;;;;;7384051;19;20376;-76
2022/01/19 03:21:54;;;;;;;6.72;5.18;;;3.90;99.90;;;;;;7383255;19;20328;-77
2022/01/19 03:24:19;;;;;;;6.70;5.60;;;3.90;99.90;;;;;;7382039;19;20312;-76
2022/01/19 03:26:45;;;;;;;10.38;6.13;;;3.90;99.90;;;;;;7385614;19;20317;-76
2022/01/19 03:29:33;;;;;;;8.10;5.80;;;3.90;99.90;;;;;;7279274;19;2005320;-76
2022/01/19 03:31:59;;;;;;;8.05;5.72;;;4.00;99.90;;;;;;7383660;19;20353;-76
2022/01/19 03:34:24;;;;;;;6.65;5.93;;;4.10;99.90;;;;;;7383115;19;20318;-77
2022/01/19 03:36:58;;;;;;;6.85;5.30;;;4.00;99.90;;;;;;7381961;19;20307;-76
2022/01/19 03:39:24;;;;;;;7.20;5.13;;;4.00;99.90;;;;;;7382935;19;20307;-77
2022/01/19 03:41:50;;;;;;;7.40;5.60;;;4.00;99.90;;;;;;7382572;19;20320;-76
2022/01/19 03:44:16;;;;;;;7.78;5.50;;;4.00;99.90;;;;;;7379107;19;21130;-76
2022/01/19 03:46:59;;;;;;;6.10;5.03;;;4.00;99.90;;;;;;7383033;19;20296;-76
2022/01/19 03:49:26;;;;;;;7.80;5.18;;;4.00;99.90;;;;;;7266215;19;2006230;-78
2022/01/19 03:52:02;;;;;;;6.50;4.63;;;4.00;99.90;;;;;;7383306;19;20324;-76
2022/01/19 03:54:34;;;;;;;5.00;4.50;;;3.90;99.90;;;;;;7282763;19;2006590;-76
2022/01/19 03:56:59;;;;;;;7.20;5.10;;;3.90;99.90;;;;;;7384300;19;20301;-76
2022/01/19 03:59:25;;;;;;;4.90;4.05;;;3.90;99.90;;;;;;7381878;19;20323;-76
2022/01/19 04:01:52;;;;;;;6.38;4.38;;;3.90;99.90;;;;;;7383118;19;20320;-77
2022/01/19 04:07:16;;;;;;;4.82;4.30;;;3.80;99.90;;;;;;7277622;19;2006499;-76
2022/01/19 04:09:45;;;;;;;6.25;4.55;;;3.80;99.90;;;;;;7380842;19;20832;-76
2022/01/19 04:12:18;;;;;;;4.60;4.07;;;3.80;99.90;;;;;;7380925;19;20352;-78
2022/01/19 04:14:45;;;;;;;5.73;4.50;;;3.90;99.90;;;;;;7381353;19;20334;-76
2022/01/19 04:17:12;;;;;;;5.07;4.33;;;3.90;99.90;;;;;;7380542;19;20300;-77
2022/01/19 04:19:48;;;;;;;6.40;4.60;;;3.90;99.90;;;;;;7380462;19;20308;-76
2022/01/19 04:22:20;;;;;;;10.02;4.90;;;3.80;99.90;;;;;;7281423;19;2006258;-76
2022/01/19 04:24:48;;;;;;;4.43;4.03;;;3.90;99.90;;;;;;7382211;19;20405;-76
2022/01/19 04:30:08;;;;;;;3.95;3.60;;;3.90;99.90;;;;;;7382396;19;20313;-76
2022/01/19 04:33:05;;;;;;;4.17;3.50;;;3.80;99.90;;;;;;7279050;19;2004434;-76
2022/01/19 04:36:26;;;;;;;5.43;3.90;;;3.80;99.90;;;;;;7379854;19;20329;-76
2022/01/19 04:39:19;;;;;;;4.03;3.40;;;3.70;99.90;;;;;;7379434;19;20316;-76
2022/01/19 04:44:27;;;;;;;3.50;3.05;;;3.60;99.90;;;;;;7371295;19;20739;-76
2022/01/19 05:04:27;;;;;;;3.17;2.88;;;3.10;99.90;;;;;;7278038;19;2004778;-76
2022/01/19 05:06:39;;;;;;;3.88;3.47;;;3.00;99.90;;;;;;7276985;19;2005271;-76
2022/01/19 05:09:25;;;;;;;4.35;3.95;;;2.90;99.90;;;;;;7379940;19;20317;-76
2022/01/19 05:14:46;;;;;;;8.13;4.22;;;2.80;99.90;;;;;;7365898;19;20312;-77
2022/01/19 05:17:12;;;;;;;5.60;4.95;;;2.70;99.90;;;;;;7389297;19;20355;-76
2022/01/19 05:19:38;;;;;;;6.47;5.23;;;2.60;99.90;;;;;;7387272;19;20308;-77
2022/01/19 05:22:05;;;;;;;8.48;5.10;;;2.50;99.90;;;;;;7387648;19;20341;-76
2022/01/19 05:24:51;;;;;;;4.80;3.80;;;2.50;99.90;;;;;;7286662;19;2004207;-76
2022/01/19 05:27:30;;;;;;;4.18;3.78;;;2.40;99.90;;;;;;7288335;19;2006360;-76
2022/01/19 05:29:56;;;;;;;4.97;4.28;;;2.40;99.90;;;;;;7386727;19;20344;-76
2022/01/19 05:32:23;;;;;;;5.83;4.40;;;2.30;99.90;;;;;;7386945;19;20379;-77
2022/01/19 05:34:48;;;;;;;5.55;4.57;;;2.20;99.90;;;;;;7386244;19;20300;-77
2022/01/19 05:37:42;;;;;;;4.93;4.43;;;2.20;99.90;;;;;;7284377;19;2007398;-77
2022/01/19 05:40:26;;;;;;;5.25;4.47;;;2.10;99.90;;;;;;7383892;19;20950;-76
2022/01/19 05:42:54;;;;;;;4.97;4.10;;;2.10;99.90;;;;;;7384931;19;20307;-76
2022/01/19 05:45:21;;;;;;;5.15;3.90;;;2.10;99.90;;;;;;7386266;19;20645;-77
2022/01/19 05:47:47;;;;;;;4.40;4.00;;;2.00;99.90;;;;;;7387263;19;20396;-76
2022/01/19 05:50:13;;;;;;;4.95;4.40;;;2.10;99.90;;;;;;7387023;19;20694;-76
2022/01/19 05:52:39;;;;;;;4.95;4.35;;;2.00;99.90;;;;;;7385669;19;20297;-76
2022/01/19 05:55:06;;;;;;;4.40;4.00;;;1.90;99.90;;;;;;7386022;19;20371;-77
2022/01/19 05:57:32;;;;;;;6.68;5.15;;;1.80;99.90;;;;;;7385320;19;20844;-76
2022/01/19 05:59:58;;;;;;;7.55;6.60;;;1.80;99.90;;;;;;7383575;19;20824;-76
2022/01/19 06:02:24;;;;;;;8.40;6.13;;;1.90;99.90;;;;;;7385031;19;20410;-77
2022/01/19 06:04:50;;;;;;;5.32;4.72;;;1.90;99.90;;;;;;7386203;19;20313;-77
2022/01/19 06:07:29;;;;;;;4.65;4.25;;;2.10;99.90;;;;;;7383853;19;20301;-77
2022/01/19 06:10:05;;;;;;;5.93;4.43;;;1.90;99.90;;;;;;7386454;19;20348;-76
2022/01/19 06:12:36;;;;;;;5.57;4.95;;;1.90;99.90;;;;;;7280293;19;2005989;-75
2022/01/19 06:15:02;;;;;;;4.55;4.15;;;1.90;99.90;;;;;;7382554;19;20450;-77
2022/01/19 06:17:28;;;;;;;4.70;4.20;;;2.00;99.90;;;;;;7381866;19;20417;-76
2022/01/19 06:19:54;;;;;;;5.80;4.68;;;2.00;99.90;;;;;;7373636;19;20328;-76
2022/01/19 06:22:21;;;;;;;5.90;5.28;;;2.10;99.90;;;;;;7382090;19;20336;-76
2022/01/19 06:24:48;;;;;;;6.70;4.97;;;2.00;99.90;;;;;;7378116;19;20840;-75
2022/01/19 06:27:13;;;;;;;6.13;4.30;;;2.00;99.90;;;;;;7380059;19;20301;-76
2022/01/19 06:29:39;;;;;;;4.47;3.90;;;2.00;99.90;;;;;;7381766;19;20318;-75
2022/01/19 06:32:05;;;;;;;5.40;4.20;;;2.00;99.90;;;;;;7377322;19;20308;-75
2022/01/19 06:34:31;;;;;;;5.75;4.80;;;2.00;99.90;;;;;;7380323;19;20743;-77
2022/01/19 06:37:16;;;;;;;5.10;4.30;;;2.00;99.90;;;;;;7279808;19;2004393;-76
2022/01/19 06:39:47;;;;;;;4.30;3.85;;;1.90;99.90;;;;;;7381743;19;20324;-75
2022/01/19 06:42:12;;;;;;;4.03;3.63;;;1.90;99.90;;;;;;7384852;19;20330;-75
2022/01/19 06:44:40;;;;;;;5.00;4.18;;;1.90;99.90;;;;;;7384979;19;20309;-76
2022/01/19 06:47:05;;;;;;;4.83;4.33;;;2.00;99.90;;;;;;7383679;19;20349;-75
2022/01/19 06:49:32;;;;;;;4.20;3.80;;;2.00;99.90;;;;;;7384658;19;20478;-75
2022/01/19 06:51:59;;;;;;;5.47;4.43;;;2.00;99.90;;;;;;7385353;19;20330;-75
2022/01/19 06:54:25;;;;;;;4.25;3.85;;;1.90;99.90;;;;;;7382421;19;20301;-75
2022/01/19 06:56:51;;;;;;;4.38;3.97;;;1.90;99.90;;;;;;7383431;19;20391;-75
2022/01/19 06:59:37;;;;;;;4.68;4.20;;;1.90;99.90;;;;;;7366308;19;20333;-76
2022/01/19 07:02:23;;;;;;;4.40;4.00;;;2.00;99.90;;;;;;7387306;19;20323;-77
2022/01/19 07:04:54;;;;;;;4.05;3.65;;;1.90;99.90;;;;;;7388733;19;20340;-76
2022/01/19 07:07:30;;;;;;;5.47;4.40;;;1.80;99.90;;;;;;7388081;19;20309;-75
2022/01/19 07:10:01;;;;;;;5.65;5.15;;;1.80;99.90;;;;;;7383379;19;20388;-76
2022/01/19 07:12:26;;;;;;;6.72;4.60;;;1.80;99.90;;;;;;7385784;19;22589;-76
2022/01/19 07:14:53;;;;;;;5.53;4.93;;;2.00;99.90;;;;;;7380909;19;20440;-76
2022/01/19 07:17:18;;;;;;;7.32;5.55;;;1.80;99.90;;;;;;7383953;19;20308;-76
2022/01/19 07:19:44;;;;;;;6.85;6.15;;;1.70;99.90;;;;;;7384287;19;20328;-76
2022/01/19 07:22:11;;;;;;;8.13;6.88;;;1.70;99.90;;;;;;7384333;19;20340;-74
2022/01/19 07:24:37;;;;;;;7.55;6.15;;;1.60;99.90;;;;;;7385364;19;20368;-76
2022/01/19 07:27:03;;;;;;;8.13;6.75;;;1.50;99.90;;;;;;7383853;19;21148;-76
2022/01/19 07:29:30;;;;;;;8.00;6.68;;;1.50;99.90;;;;;;7361851;19;20313;-76
2022/01/19 07:31:58;;;;;;;7.43;6.70;;;1.50;99.90;;;;;;7385465;19;20376;-76
2022/01/19 07:34:25;;;;;;;9.95;7.78;;;1.50;99.90;;;;;;7382580;19;21229;-77
2022/01/19 07:36:53;;;;;;;8.27;6.60;;;1.40;99.90;;;;;;7383655;19;21287;-78
2022/01/19 07:39:19;;;;;;;7.15;6.30;;;1.60;99.90;;;;;;7382524;19;20305;-76
2022/01/19 07:41:45;;;;;;;9.48;8.13;;;1.50;99.90;;;;;;7383578;19;20868;-76
2022/01/19 07:44:30;;;;;;;9.70;8.32;;;1.30;99.90;;;;;;7282892;19;2005435;-75
2022/01/19 07:47:14;;;;;;;6.95;6.28;;;1.30;99.90;;;;;;7281531;19;2004569;-76
2022/01/19 07:50:00;;;;;;;7.60;6.78;;;1.30;99.90;;;;;;7383590;19;20328;-76
2022/01/19 07:52:53;;;;;;;9.90;7.57;;;1.30;99.90;;;;;;7282034;19;2004629;-77
2022/01/19 07:55:21;;;;;;;13.23;11.52;;;1.30;99.90;;;;;;7384739;19;20387;-75
2022/01/19 07:58:05;;;;;;;16.48;13.18;;;1.30;99.90;;;;;;7282384;19;2004459;-76
2022/01/19 08:00:38;;;;;;;28.67;19.70;;;1.40;99.90;;;;;;7382651;19;20321;-76
2022/01/19 08:03:24;;;;;;;27.15;21.27;;;1.30;99.90;;;;;;7279804;19;2004253;-76
2022/01/19 08:05:58;;;;;;;13.63;10.50;;;1.40;99.90;;;;;;7279630;19;2004335;-76
2022/01/19 08:08:24;;;;;;;11.65;9.73;;;1.40;99.90;;;;;;7383390;19;20337;-75
2022/01/19 08:10:50;;;;;;;13.10;10.27;;;1.40;99.90;;;;;;7383171;19;20313;-75
2022/01/19 08:13:17;;;;;;;10.73;8.87;;;1.50;99.90;;;;;;7379936;19;20322;-75
2022/01/19 08:15:51;;;;;;;8.77;7.28;;;1.40;99.90;;;;;;7312891;19;20317;-74
2022/01/19 08:18:22;;;;;;;10.10;7.90;;;1.40;99.90;;;;;;7340083;19;20346;-75
2022/01/19 08:20:48;;;;;;;7.57;5.95;;;1.50;99.90;;;;;;7381318;19;20319;-75
2022/01/19 08:23:15;;;;;;;8.38;6.50;;;1.40;99.90;;;;;;7381235;19;20304;-74
2022/01/19 08:25:51;;;;;;;20.40;15.70;;;1.40;99.90;;;;;;7381083;19;20338;-75
2022/01/19 08:28:20;;;;;;;8.65;6.43;;;1.50;99.90;;;;;;7383130;19;20307;-74
2022/01/19 08:30:46;;;;;;;7.22;6.10;;;1.60;99.90;;;;;;7383050;19;20381;-75
2022/01/19 08:33:15;;;;;;;7.80;5.75;;;1.60;99.90;;;;;;7377203;19;20300;-74
2022/01/19 08:35:52;;;;;;;6.13;5.53;;;1.70;99.90;;;;;;7383942;19;20303;-74
2022/01/19 08:38:27;;;;;;;5.82;5.22;;;1.80;99.90;;;;;;7382096;19;20313;-75
2022/01/19 08:41:06;;;;;;;5.40;4.90;;;1.80;99.90;;;;;;7381745;19;20661;-73
2022/01/19 08:43:33;;;;;;;7.57;5.72;;;1.80;99.90;;;;;;7381759;19;20396;-73
2022/01/19 08:45:58;;;;;;;5.60;5.03;;;1.90;99.90;;;;;;7384146;19;21135;-74
2022/01/19 08:48:33;;;;;;;4.85;4.35;;;2.00;99.90;;;;;;7381200;19;20315;-75
2022/01/19 08:51:23;;;;;;;5.60;4.75;;;2.00;99.90;;;;;;7280425;19;2008557;-74
2022/01/19 08:53:53;;;;;;;7.00;5.15;;;2.00;99.90;;;;;;7380453;19;20332;-75
2022/01/19 08:56:26;;;;;;;6.53;4.57;;;2.10;99.90;;;;;;7384518;19;20828;-74
2022/01/19 08:58:51;;;;;;;6.50;4.85;;;2.20;99.90;;;;;;7380238;19;20357;-76
2022/01/19 09:01:17;;;;;;;6.25;4.93;;;2.20;99.90;;;;;;7380358;19;20376;-74
2022/01/19 09:03:43;;;;;;;5.73;4.77;;;2.30;99.90;;;;;;7380335;19;20317;-74
2022/01/19 09:06:08;;;;;;;5.60;4.50;;;2.40;99.90;;;;;;7381742;19;20445;-74
2022/01/19 09:08:34;;;;;;;7.07;5.40;;;2.40;99.90;;;;;;7382870;19;20887;-76
2022/01/19 09:11:01;;;;;;;5.75;4.75;;;2.40;99.90;;;;;;7382273;19;20363;-76
2022/01/19 09:13:27;;;;;;;5.32;4.13;;;2.50;99.90;;;;;;7357716;19;20336;-75
2022/01/19 09:15:53;;;;;;;5.68;4.68;;;2.50;99.90;;;;;;7383256;19;20340;-76
2022/01/19 09:18:19;;;;;;;6.47;4.82;;;2.60;99.90;;;;;;7379106;19;20332;-75
2022/01/19 09:20:44;;;;;;;4.73;4.33;;;2.70;99.90;;;;;;7380676;19;20384;-76
2022/01/19 09:23:10;;;;;;;5.72;4.28;;;2.70;99.90;;;;;;7381262;19;20347;-76
2022/01/19 09:25:36;;;;;;;5.55;4.70;;;2.90;99.90;;;;;;7376780;19;20346;-75
2022/01/19 09:28:01;;;;;;;6.90;4.80;;;2.90;99.90;;;;;;7380098;19;20352;-76
2022/01/19 09:30:27;;;;;;;7.65;4.70;;;3.00;99.90;;;;;;7378439;19;20309;-77
2022/01/19 09:33:06;;;;;;;4.78;4.35;;;3.10;99.90;;;;;;7378492;19;20326;-77
2022/01/19 09:35:50;;;;;;;4.78;4.38;;;3.10;99.90;;;;;;7380482;19;20320;-76
2022/01/19 09:38:16;;;;;;;5.63;4.90;;;3.20;99.90;;;;;;7378617;19;20339;-76
2022/01/19 09:40:42;;;;;;;4.63;4.18;;;3.30;99.90;;;;;;7380672;19;20329;-77
2022/01/19 09:43:09;;;;;;;5.30;4.80;;;3.40;99.90;;;;;;7379073;19;20337;-78
2022/01/19 09:45:35;;;;;;;6.82;5.80;;;3.40;99.90;;;;;;7379266;19;20296;-76
2022/01/19 09:48:00;;;;;;;6.93;5.57;;;3.50;99.90;;;;;;7378523;19;20890;-77
2022/01/19 09:50:29;;;;;;;4.90;4.30;;;3.60;99.90;;;;;;7379081;19;20308;-77
2022/01/19 09:52:54;;;;;;;5.45;4.95;;;3.70;99.90;;;;;;7378212;19;20361;-77
2022/01/19 09:55:20;;;;;;;4.90;4.30;;;3.80;99.90;;;;;;7379164;19;20684;-76
2022/01/19 09:57:46;;;;;;;5.43;4.93;;;3.90;99.90;;;;;;7379931;19;20919;-76
2022/01/19 10:00:12;;;;;;;4.55;4.15;;;3.90;99.90;;;;;;7360212;19;20348;-77
2022/01/19 10:02:41;;;;;;;6.30;5.50;;;4.00;99.90;;;;;;7383546;19;20321;-76
2022/01/19 10:05:07;;;;;;;5.33;4.83;;;4.00;99.90;;;;;;7388037;19;20309;-76
2022/01/19 10:07:33;;;;;;;6.95;4.93;;;4.10;99.90;;;;;;7387307;19;20316;-76
2022/01/19 10:10:03;;;;;;;4.10;3.70;;;4.20;99.90;;;;;;7372070;19;20373;-76
2022/01/19 10:18:17;;;;;;;4.30;3.90;;;4.40;99.90;;;;;;7284463;19;2009276;-77
2022/01/19 10:20:43;;;;;;;5.05;4.55;;;4.40;99.90;;;;;;7386803;19;20313;-76
2022/01/19 10:23:33;;;;;;;5.10;4.60;;;4.40;99.90;;;;;;7384846;19;20337;-75
2022/01/19 10:25:59;;;;;;;5.28;4.53;;;4.50;99.90;;;;;;7281947;19;2007120;-77
2022/01/19 10:28:24;;;;;;;4.90;4.40;;;4.50;99.90;;;;;;7385772;19;20345;-76
2022/01/19 10:30:51;;;;;;;5.83;5.13;;;4.70;99.90;;;;;;7386125;19;21730;-76
2022/01/19 10:33:18;;;;;;;5.68;5.13;;;4.60;99.90;;;;;;7382801;19;20352;-76
2022/01/19 10:35:48;;;;;;;6.30;5.30;;;4.60;99.90;;;;;;7384038;19;20322;-77
2022/01/19 10:38:19;;;;;;;5.10;4.65;;;4.70;99.90;;;;;;7385632;19;20300;-76
2022/01/19 10:41:06;;;;;;;5.93;5.33;;;4.70;99.90;;;;;;7386166;19;20317;-76
2022/01/19 10:43:37;;;;;;;5.53;5.00;;;4.80;99.90;;;;;;7282840;19;2004682;-76
2022/01/19 10:46:23;;;;;;;6.13;5.35;;;4.80;99.90;;;;;;7385273;19;20741;-76
2022/01/19 10:48:48;;;;;;;5.63;4.95;;;4.80;99.90;;;;;;7280763;19;2006826;-77
2022/01/19 10:51:16;;;;;;;6.50;5.53;;;4.80;99.90;;;;;;7384380;19;20316;-76
2022/01/19 10:53:44;;;;;;;6.43;5.72;;;4.80;99.90;;;;;;7382841;19;20906;-77
2022/01/19 10:56:29;;;;;;;7.75;5.57;;;4.80;99.90;;;;;;7384501;19;20320;-76
2022/01/19 10:59:05;;;;;;;6.88;6.15;;;4.80;99.90;;;;;;7281431;19;2007409;-76
2022/01/19 11:01:34;;;;;;;6.07;5.50;;;4.80;99.90;;;;;;7382725;19;20337;-77
2022/01/19 11:04:18;;;;;;;6.88;5.90;;;4.90;99.90;;;;;;7384788;19;20920;-76
2022/01/19 11:06:45;;;;;;;6.80;5.80;;;5.00;99.90;;;;;;7282882;19;2004513;-76
2022/01/19 11:09:14;;;;;;;7.25;6.45;;;5.00;99.90;;;;;;7382707;19;20653;-77
2022/01/19 11:11:43;;;;;;;6.77;6.07;;;5.10;99.90;;;;;;7381604;19;20848;-76
2022/01/19 11:14:09;;;;;;;7.30;6.60;;;5.30;99.90;;;;;;7383705;19;20330;-77
2022/01/19 11:16:35;;;;;;;6.73;6.10;;;5.40;99.90;;;;;;7385481;19;20303;-76
2022/01/19 11:19:00;;;;;;;7.50;6.00;;;5.40;99.90;;;;;;7383907;19;20380;-76
2022/01/19 11:21:26;;;;;;;7.28;6.18;;;5.50;99.90;;;;;;7384679;19;20300;-77
2022/01/19 11:24:06;;;;;;;6.50;5.90;;;5.60;99.90;;;;;;7308560;19;20298;-77
2022/01/19 11:26:47;;;;;;;6.88;5.97;;;5.60;99.90;;;;;;7183375;19;2004448;-76
2022/01/19 11:29:21;;;;;;;9.90;6.18;;;5.70;99.90;;;;;;7283074;19;2004413;-77
2022/01/19 11:31:48;;;;;;;6.95;6.35;;;5.80;99.90;;;;;;7383748;19;20892;-76
2022/01/19 11:34:14;;;;;;;7.53;6.43;;;5.80;99.90;;;;;;7382345;19;20412;-76
2022/01/19 11:36:42;;;;;;;8.33;5.60;;;5.70;99.90;;;;;;7384965;19;20312;-79
2022/01/19 11:39:17;;;;;;;6.35;5.60;;;5.80;99.90;;;;;;7281673;19;2026543;-77
2022/01/19 11:41:56;;;;;;;6.65;5.80;;;5.70;99.90;;;;;;7384755;19;20341;-77
2022/01/19 11:44:28;;;;;;;7.63;6.57;;;5.70;99.90;;;;;;7382424;19;20867;-75
2022/01/19 11:46:55;;;;;;;6.13;5.53;;;5.60;99.90;;;;;;7383914;19;20309;-77
2022/01/19 11:49:43;;;;;;;8.00;6.88;;;5.80;99.90;;;;;;7380874;19;20312;-77
2022/01/19 11:52:09;;;;;;;7.07;6.15;;;5.80;99.90;;;;;;7383545;19;20655;-76
2022/01/19 11:54:34;;;;;;;5.83;5.23;;;6.00;99.90;;;;;;7372969;19;20336;-76
2022/01/19 11:57:02;;;;;;;6.65;5.85;;;6.10;99.90;;;;;;7383900;19;20332;-75
2022/01/19 11:59:48;;;;;;;6.47;5.80;;;6.30;99.90;;;;;;7387717;19;20323;-77
2022/01/19 12:04:50;;;;;;;9.27;6.70;;;6.30;99.90;;;;;;7382061;19;20312;-77
2022/01/19 12:07:35;;;;;;;6.78;6.07;;;6.30;99.90;;;;;;7385145;19;20351;-77
2022/01/19 12:10:00;;;;;;;5.85;5.25;;;6.30;99.90;;;;;;7382646;19;20309;-77
2022/01/19 12:12:31;;;;;;;6.40;5.80;;;6.50;99.90;;;;;;7381604;19;20416;-77
2022/01/19 12:14:57;;;;;;;7.10;5.60;;;6.50;99.90;;;;;;7384262;19;20336;-76
2022/01/19 12:17:27;;;;;;;7.18;6.20;;;6.40;99.90;;;;;;7385965;19;20327;-77
2022/01/19 12:19:53;;;;;;;7.45;6.32;;;6.30;99.90;;;;;;7381744;19;20299;-77
2022/01/19 12:22:24;;;;;;;6.70;5.95;;;6.20;99.90;;;;;;7383404;19;20343;-78
2022/01/19 12:25:00;;;;;;;6.70;6.05;;;6.20;99.90;;;;;;7279797;19;2005430;-77
2022/01/19 12:27:34;;;;;;;7.80;6.10;;;5.80;99.90;;;;;;7382372;19;20324;-77
2022/01/19 12:30:06;;;;;;;7.90;6.28;;;5.80;99.90;;;;;;7381360;19;21068;-78
2022/01/19 12:32:35;;;;;;;7.40;6.07;;;5.90;99.90;;;;;;7384469;19;20316;-77
2022/01/19 12:35:11;;;;;;;7.63;6.32;;;5.60;99.90;;;;;;7383134;19;20316;-77
2022/01/19 12:37:38;;;;;;;6.55;5.68;;;5.30;99.90;;;;;;7381390;19;20316;-77
2022/01/19 12:40:25;;;;;;;6.30;5.70;;;5.50;99.90;;;;;;7382621;19;21184;-76
2022/01/19 12:42:52;;;;;;;6.77;6.07;;;5.10;99.90;;;;;;7279732;19;2005605;-76
2022/01/19 12:45:19;;;;;;;6.55;5.93;;;5.00;99.90;;;;;;7383676;19;20308;-76
2022/01/19 12:47:45;;;;;;;7.45;5.85;;;4.90;99.90;;;;;;7383129;19;20957;-76
2022/01/19 12:50:10;;;;;;;6.53;5.82;;;4.80;99.90;;;;;;7379189;19;20312;-79
2022/01/19 12:52:55;;;;;;;7.10;5.83;;;4.70;99.90;;;;;;7381816;19;20809;-76
2022/01/19 12:55:29;;;;;;;6.47;5.88;;;4.80;99.90;;;;;;7281470;19;2007045;-78
2022/01/19 12:57:55;;;;;;;5.68;5.18;;;4.70;99.90;;;;;;7382413;19;20321;-76
2022/01/19 13:00:28;;;;;;;6.13;5.53;;;4.50;99.90;;;;;;7381756;19;20332;-77
2022/01/19 13:02:53;;;;;;;6.13;5.53;;;4.40;99.90;;;;;;7380233;19;20337;-77
2022/01/19 13:05:20;;;;;;;5.75;4.90;;;4.30;99.90;;;;;;7381976;19;20396;-77
2022/01/19 13:07:54;;;;;;;5.72;5.22;;;4.20;99.90;;;;;;7383962;19;20360;-78
2022/01/19 13:10:43;;;;;;;5.95;5.35;;;4.20;99.90;;;;;;7383241;19;20317;-77
2022/01/19 13:15:49;;;;;;;5.70;5.20;;;4.40;99.90;;;;;;7280374;19;2006829;-77
2022/01/19 13:18:19;;;;;;;5.50;5.00;;;4.40;99.90;;;;;;7380454;19;20368;-79
2022/01/19 13:20:52;;;;;;;4.78;4.28;;;4.30;99.90;;;;;;7379767;19;20388;-77
2022/01/19 13:23:18;;;;;;;5.15;4.40;;;4.30;99.90;;;;;;7378282;19;20316;-76
2022/01/19 13:25:43;;;;;;;5.18;4.68;;;4.20;99.90;;;;;;7358175;19;20328;-78
2022/01/19 13:28:12;;;;;;;6.05;4.60;;;4.10;99.90;;;;;;7376964;19;20446;-78
2022/01/19 13:30:39;;;;;;;5.35;4.85;;;4.10;99.90;;;;;;7381895;19;20328;-77
2022/01/19 13:33:12;;;;;;;5.50;4.40;;;4.30;99.90;;;;;;7341003;19;20321;-78
2022/01/19 13:35:38;;;;;;;5.75;5.15;;;4.20;99.90;;;;;;7382888;19;20332;-77
2022/01/19 13:38:09;;;;;;;5.47;4.90;;;4.30;99.90;;;;;;7369335;19;20355;-78
2022/01/19 13:40:37;;;;;;;4.25;3.85;;;4.30;99.90;;;;;;7388484;19;20304;-77
2022/01/19 13:43:08;;;;;;;4.60;4.10;;;4.30;99.90;;;;;;7385821;19;20303;-77
2022/01/19 13:48:28;;;;;;;5.35;4.63;;;4.20;99.90;;;;;;7384499;19;20419;-76
2022/01/19 13:50:57;;;;;;;4.63;4.18;;;4.20;99.90;;;;;;7387430;19;20432;-77
2022/01/19 13:53:27;;;;;;;4.43;4.03;;;4.20;99.90;;;;;;7389108;19;20327;-77
2022/01/19 13:55:54;;;;;;;6.72;5.38;;;4.10;99.90;;;;;;7387674;19;20337;-77
2022/01/19 13:58:20;;;;;;;4.95;4.40;;;4.20;99.90;;;;;;7386715;19;20322;-77
2022/01/19 14:00:54;;;;;;;4.53;4.03;;;4.30;99.90;;;;;;7385644;19;20305;-77
2022/01/19 14:03:21;;;;;;;5.13;4.63;;;4.30;99.90;;;;;;7386499;19;20870;-77
2022/01/19 14:05:48;;;;;;;4.57;4.18;;;4.50;99.90;;;;;;7386372;19;20957;-78
2022/01/19 14:08:14;;;;;;;4.90;4.40;;;4.60;99.90;;;;;;7385382;19;20770;-77
2022/01/19 14:10:50;;;;;;;4.97;4.47;;;4.70;99.90;;;;;;7350271;19;20308;-77
2022/01/19 14:13:33;;;;;;;4.65;4.20;;;4.70;99.90;;;;;;7317897;19;20321;-77
2022/01/19 14:16:23;;;;;;;4.55;4.15;;;4.80;99.90;;;;;;7386560;19;20389;-77
2022/01/19 14:19:06;;;;;;;3.85;3.55;;;4.70;99.90;;;;;;7283699;19;2008258;-77
2022/01/19 14:21:32;;;;;;;4.68;4.18;;;4.70;99.90;;;;;;7283811;19;2008158;-77
2022/01/19 14:23:58;;;;;;;5.22;4.05;;;4.60;99.90;;;;;;7386236;19;20854;-77
2022/01/19 14:26:24;;;;;;;4.57;4.18;;;4.60;99.90;;;;;;7387599;19;20317;-77
2022/01/19 14:29:12;;;;;;;4.40;4.00;;;4.50;99.90;;;;;;7387061;19;20388;-76
2022/01/19 14:31:53;;;;;;;4.88;4.40;;;4.40;99.90;;;;;;7285406;19;2012253;-77